Aviation Digital Data Service (ADDS)

Output produced by METARs form (1110 UTC 25 October 2014)
found at http://aviationweather.gov/adds/metars/
 
KARA 250520Z 2506/2606 01005KT P6SM SKC